Flight Track Log - Related Links

Times and Time Zones

All times are in EDT time to prevent confusion due to time zone crossing. See the FLG3862 flight status page for this flight to view local times or setup timezone preferences in your user account.

Time Position Orientation Groundspeed Altitude Reporting Facility
EDT Latitude Longitude Course Direction KTS MPH feet Rate Location/Type
Fri 01:30:39 PM 44.4831 -73.3247 284° West 298 343 9,400  Level Boston Center
Fri 01:31:39 PM 44.4656 -73.4144 255° West 251 289 11,600 1,780 Climbing Boston Center
Fri 01:32:00 PM 44.3631 -73.7251 259° West  Level FlightAware Approximate
Fri 01:32:37 PM 44.4458 -73.5247 256° West 272 313 12,900  Level Boston Center
Fri 01:33:00 PM 44.3465 -73.8416 259° West  Level FlightAware Approximate
Fri 01:33:37 PM 44.4281 -73.6261 256° West 296 341 14,700  Level Boston Center
Fri 01:34:00 PM 44.3267 -73.9697 256° West  Level FlightAware Approximate
Fri 01:34:37 PM 44.4081 -73.7419 256° West 305 351 16,200  Level Boston Center
Fri 01:35:00 PM 44.3033 -74.0967 256° West  Level FlightAware Approximate
Fri 01:35:38 PM 44.3861 -73.8547 255° West 305 351 17,700  Level Boston Center
Fri 01:36:37 PM 44.3658 -73.9706 256° West 310 357 19,500 1,765 Climbing Boston Center
Fri 01:37:37 PM 44.3433 -74.0831 254° West 310 357 21,200 1,350 Climbing Boston Center
Fri 01:38:37 PM 44.3253 -74.1756 255° West 291 335 22,200 1,091 Climbing Boston Center
Fri 01:39:38 PM 44.3025 -74.3111 257° West 291 335 23,400 885 Climbing Boston Center
Fri 01:40:39 PM 44.2775 -74.4233 253° West 297 342 24,000 545 Climbing Boston Center
Fri 01:41:39 PM 44.2567 -74.5386 256° West 302 348 24,500 508 Climbing Boston Center
Fri 01:42:37 PM 44.2314 -74.6653 254° West 315 362 25,000 504 Climbing Boston Center
Fri 01:43:38 PM 44.2103 -74.7833 256° West 343 395 25,500 541 Climbing Boston Center
Fri 01:44:39 PM 44.1847 -74.9125 255° West 349 402 26,100 645 Climbing Boston Center
Fri 01:45:39 PM 44.1589 -75.0447 255° West 354 407 26,800 712 Climbing Boston Center
Fri 01:46:37 PM 44.1331 -75.1736 254° West 354 407 27,500 610 Climbing Boston Center
Fri 01:47:37 PM 44.1089 -75.3028 255° West 354 407 28,000 250 Climbing Boston Center
Fri 01:48:37 PM 44.0825 -75.4403 255° West 359 413 28,000  Level Boston Center
Fri 01:49:38 PM 44.0539 -75.5775 254° West 359 413 28,000  Level Boston Center
Fri 01:50:37 PM 44.0250 -75.7203 254° West 370 426 28,000  Level Boston Center
Fri 01:51:38 PM 43.9956 -75.8661 254° West 381 438 28,000  Level Boston Center
Fri 01:52:39 PM 43.9683 -76.0089 255° West 387 445 28,000  Level Boston Center
Fri 01:53:37 PM 43.9553 -76.1581 263° West 393 452 28,000  Level Boston Center
Fri 01:54:37 PM 43.9503 -76.3106 267° West 393 452 28,000  Level Boston Center
Fri 01:56:48 PM 43.9167 -76.6167 261° West 380 437 28,000  Level Toronto Center
Fri 01:57:48 PM 43.9333 -76.7667 279° West 380 437 28,000  Level Toronto Center
Fri 01:58:48 PM 43.9167 -76.9167 261° West 380 437 28,000  Level Toronto Center
Fri 01:59:48 PM 43.9167 -77.0667 270° West 380 437 28,000  Level Toronto Center
Fri 02:00:48 PM 43.9000 -77.2333 262° West 390 449 28,000  Level Toronto Center
Fri 02:01:48 PM 43.9000 -77.3667 270° West 390 449 28,000  Level Toronto Center
Fri 02:02:48 PM 43.9000 -77.5333 270° West 390 449 28,000  Level Toronto Center
Fri 02:03:48 PM 43.8833 -77.6667 260° West 390 449 28,000  Level Toronto Center
Fri 02:04:48 PM 43.8500 -77.8000 251° West 390 449 28,000  Level Toronto Center
Fri 02:05:48 PM 43.8167 -77.9500 253° West 390 449 28,000  Level Toronto Center
Fri 02:06:48 PM 43.8000 -78.0833 260° West 390 449 28,000  Level Toronto Center
Fri 02:07:48 PM 43.7667 -78.2500 255° West 390 449 28,000  Level Toronto Center
Fri 02:08:48 PM 43.7500 -78.3833 260° West 390 449 28,000  Level Toronto Center
Fri 02:09:48 PM 43.7500 -78.5500 270° West 400 460 28,000  Level Toronto Center
Fri 02:10:48 PM 43.7000 -78.6667 239° Southwest 380 437 28,000  Level Toronto Center
Fri 02:11:48 PM 43.6333 -78.8000 235° Southwest 380 437 28,000  Level Toronto Center
Fri 02:12:48 PM 43.5833 -78.9167 239° Southwest 380 437 28,000 -50 Level Toronto Center
Fri 02:13:48 PM 43.5333 -79.0333 239° Southwest 380 437 27,900 -650 Descending Toronto Center
Fri 02:14:48 PM 43.4833 -79.1667 243° Southwest 370 426 26,700 -950 Descending Toronto Center
Fri 02:15:48 PM 43.4333 -79.2833 239° Southwest 360 414 26,000 -350 Descending Toronto Center
Fri 02:16:48 PM 43.3833 -79.3833 235° Southwest 320 368 26,000  Level Toronto Center
Fri 02:17:48 PM 43.3333 -79.5000 240° Southwest 300 345 26,000  Level Toronto Center
Fri 02:18:48 PM 43.2833 -79.5833 231° Southwest 310 357 26,000  Level Toronto Center
Fri 02:19:48 PM 43.2500 -79.7000 249° West 320 368 26,000  Level Toronto Center
Fri 02:20:48 PM 43.2000 -79.8000 236° Southwest 330 380 26,000 -150 Level Toronto Center
Fri 02:21:48 PM 43.1500 -79.9000 236° Southwest 330 380 25,700 -700 Descending Toronto Center
Fri 02:22:48 PM 43.1000 -80.0000 236° Southwest 330 380 24,600 -1,100 Descending Toronto Center
Fri 02:23:48 PM 43.0500 -80.1167 240° Southwest 320 368 23,500 -800 Descending Toronto Center
Fri 02:24:48 PM 43.0000 -80.2333 240° Southwest 320 368 23,000 -250 Descending Toronto Center
Fri 02:25:48 PM 42.9667 -80.3167 241° Southwest 300 345 23,000  Level Toronto Center
Fri 02:26:48 PM 42.9167 -80.4000 231° Southwest 300 345 23,000  Level Toronto Center
Fri 02:27:48 PM 42.8667 -80.5000 236° Southwest 310 357 23,000  Level Toronto Center
Fri 02:28:21 PM 42.8500 -80.5803 254° West 306 352 23,000  Level Cleveland Center
Fri 02:29:21 PM 42.8083 -80.6767 240° Southwest 306 352 23,000  Level Cleveland Center
Fri 02:30:21 PM 42.7603 -80.7728 236° Southwest 300 345 23,000  Level Cleveland Center
Fri 02:31:21 PM 42.7183 -80.8658 238° Southwest 300 345 23,000  Level Cleveland Center
Fri 02:32:21 PM 42.6972 -80.9842 256° West 309 356 23,000  Level Cleveland Center
Fri 02:33:20 PM 42.6822 -81.0858 259° West 309 356 23,000  Level Cleveland Center
Fri 02:34:21 PM 42.6711 -81.2044 263° West 318 366 23,000  Level Cleveland Center
Fri 02:35:21 PM 42.6578 -81.3200 261° West 320 368 23,000  Level Cleveland Center
Fri 02:36:21 PM 42.6447 -81.4383 262° West 320 368 23,000  Level Cleveland Center
Fri 02:37:21 PM 42.6292 -81.5594 260° West 320 368 23,000  Level Cleveland Center
Fri 02:38:20 PM 42.6153 -81.6836 261° West 330 380 23,000 -200 Level Cleveland Center
Fri 02:39:21 PM 42.5997 -81.8044 260° West 330 380 22,600 -1,041 Descending Cleveland Center
Fri 02:40:21 PM 42.5836 -81.9256 260° West 330 380 20,900 -1,700 Descending Cleveland Center
Fri 02:41:21 PM 42.5719 -82.0353 262° West 319 367 19,200 -1,900 Descending Cleveland Center
Fri 02:42:21 PM 42.5603 -82.1392 261° West 300 345 17,100 -1,550 Descending Cleveland Center
Fri 02:43:21 PM 42.5442 -82.2458 258° West 294 338 16,100 -1,286 Descending Cleveland Center
Fri 02:43:59 PM 42.5344 -82.3331 261° West 285 328 15,000 -1,400 Descending Cleveland Center
Fri 02:44:21 PM 42.5300 -82.3525 253° West 294 338 14,700 -1,390 Descending Cleveland Center
Fri 02:45:21 PM 42.5178 -82.4619 261° West 294 338 13,100 -1,350 Descending Cleveland Center
Fri 02:46:21 PM 42.4994 -82.5686 257° West 294 338 12,000 -1,050 Descending Cleveland Center
Fri 02:47:21 PM 42.4664 -82.6633 245° Southwest 288 331 11,000 -1,150 Descending Cleveland Center
Fri 02:48:21 PM 42.4378 -82.7411 244° Southwest 264 304 9,700 -1,400 Descending Cleveland Center
Fri 02:49:21 PM 42.4361 -82.8256 268° West 234 269 8,200 -1,513 Descending Cleveland Center
Fri 02:50:20 PM 42.4367 -82.9100 271° West 229 264 6,700 -1,100 Descending Cleveland Center
Fri 02:51:21 PM 42.4328 -82.9942 266° West 229 264 6,000 -733 Descending Cleveland Center
Fri 02:52:31 PM 42.4264 -83.1064 266° West 222 255 5,100 -1,019 Descending Cleveland Center
Fri 02:53:07 PM 42.4253 -83.1561 268° West 221 254 4,200 -1,053 Descending FAA TRACON SMA TRACON (SMA)
Fri 02:53:28 PM 42.4164 -83.1769 240° Southwest 214 246 4,100 -293 Descending FAA TRACON SMA TRACON (SMA)
Fri 02:53:48 PM 42.4036 -83.1975 230° Southwest 200 230 4,000 -150 Descending FAA TRACON SMA TRACON (SMA)
Fri 02:54:08 PM 42.3900 -83.2075 208° Southwest 180 207 4,000  Level FAA TRACON SMA TRACON (SMA)
Fri 02:54:28 PM 42.3758 -83.2183 209° Southwest 155 178 4,000  Level FAA TRACON SMA TRACON (SMA)
Fri 02:54:47 PM 42.3656 -83.2261 209° Southwest 141 162 4,000 -150 Level FAA TRACON SMA TRACON (SMA)
Fri 02:55:08 PM 42.3536 -83.2350 209° Southwest 138 159 3,900 -585 Descending FAA TRACON SMA TRACON (SMA)
Fri 02:55:28 PM 42.3433 -83.2433 211° Southwest 143 165 3,600 -878 Descending FAA TRACON SMA TRACON (SMA)
Fri 02:55:49 PM 42.3306 -83.2531 209° Southwest 147 169 3,300 -900 Descending FAA TRACON SMA TRACON (SMA)
Fri 02:56:08 PM 42.3172 -83.2622 207° Southwest 145 167 3,000 -923 Descending FAA TRACON SMA TRACON (SMA)
Fri 02:56:28 PM 42.3067 -83.2697 208° Southwest 147 169 2,700 -769 Descending FAA TRACON SMA TRACON (SMA)
Fri 02:56:47 PM 42.2950 -83.2783 209° Southwest 121 139 2,500 -632 Descending FAA TRACON SMA TRACON (SMA)

Login

Don't have an account? Register now (free) for customized features, flight alerts, and more!